sensor_id;sensor_type;location;lat;lon;timestamp;pressure;altitude;pressure_sealevel;temperature;humidity
7335;BME280;3708;42.632;23.378;2023-01-13T00:01:28;94589.22;;;4.46;71.49
7335;BME280;3708;42.632;23.378;2023-01-13T00:03:56;94596.13;;;4.61;71.91
7335;BME280;3708;42.632;23.378;2023-01-13T00:06:24;94592.69;;;4.94;70.28
7335;BME280;3708;42.632;23.378;2023-01-13T00:08:52;94594.28;;;4.61;70.84
7335;BME280;3708;42.632;23.378;2023-01-13T00:11:20;94596.88;;;4.61;71.24
7335;BME280;3708;42.632;23.378;2023-01-13T00:13:47;94597.28;;;4.45;72.48
7335;BME280;3708;42.632;23.378;2023-01-13T00:16:16;94603.16;;;5.13;69.50
7335;BME280;3708;42.632;23.378;2023-01-13T00:18:45;94597.91;;;4.66;70.90
7335;BME280;3708;42.632;23.378;2023-01-13T00:21:14;94603.28;;;4.40;71.41
7335;BME280;3708;42.632;23.378;2023-01-13T00:23:42;94604.09;;;5.22;69.70
7335;BME280;3708;42.632;23.378;2023-01-13T00:26:11;94599.56;;;4.51;71.70
7335;BME280;3708;42.632;23.378;2023-01-13T00:28:39;94597.84;;;4.42;72.04
7335;BME280;3708;42.632;23.378;2023-01-13T00:31:07;94591.56;;;4.48;72.08
7335;BME280;3708;42.632;23.378;2023-01-13T00:33:34;94601.03;;;4.91;70.62
7335;BME280;3708;42.632;23.378;2023-01-13T00:36:05;94592.84;;;5.03;70.53
7335;BME280;3708;42.632;23.378;2023-01-13T00:38:34;94586.69;;;4.41;71.60
7335;BME280;3708;42.632;23.378;2023-01-13T00:41:04;94597.19;;;4.84;70.92
7335;BME280;3708;42.632;23.378;2023-01-13T00:43:33;94597.81;;;4.76;71.50
7335;BME280;3708;42.632;23.378;2023-01-13T00:45:59;94593.47;;;4.66;71.88
7335;BME280;3708;42.632;23.378;2023-01-13T00:48:26;94582.50;;;4.12;72.91
7335;BME280;3708;42.632;23.378;2023-01-13T00:50:54;94592.88;;;4.12;72.87
7335;BME280;3708;42.632;23.378;2023-01-13T00:53:22;94591.22;;;4.21;72.92
7335;BME280;3708;42.632;23.378;2023-01-13T00:55:58;94583.81;;;4.43;72.66
7335;BME280;3708;42.632;23.378;2023-01-13T00:58:25;94586.09;;;4.78;70.85
7335;BME280;3708;42.632;23.378;2023-01-13T01:00:52;94584.94;;;4.66;70.44
7335;BME280;3708;42.632;23.378;2023-01-13T01:03:18;94579.72;;;4.94;70.17
7335;BME280;3708;42.632;23.378;2023-01-13T01:05:45;94582.84;;;4.68;70.17
7335;BME280;3708;42.632;23.378;2023-01-13T01:08:12;94583.75;;;5.05;69.57
7335;BME280;3708;42.632;23.378;2023-01-13T01:10:40;94573.81;;;5.36;68.46
7335;BME280;3708;42.632;23.378;2023-01-13T01:13:07;94580.28;;;5.15;68.62
7335;BME280;3708;42.632;23.378;2023-01-13T01:15:38;94575.44;;;4.51;70.82
7335;BME280;3708;42.632;23.378;2023-01-13T01:18:05;94579.41;;;4.72;69.72
7335;BME280;3708;42.632;23.378;2023-01-13T01:20:32;94567.34;;;4.57;70.63
7335;BME280;3708;42.632;23.378;2023-01-13T01:22:59;94571.06;;;4.75;70.49
7335;BME280;3708;42.632;23.378;2023-01-13T01:25:26;94573.41;;;4.48;70.88
7335;BME280;3708;42.632;23.378;2023-01-13T01:27:54;94561.34;;;3.95;71.77
7335;BME280;3708;42.632;23.378;2023-01-13T01:30:21;94567.72;;;4.46;71.03
7335;BME280;3708;42.632;23.378;2023-01-13T01:32:48;94573.13;;;4.16;71.66
7335;BME280;3708;42.632;23.378;2023-01-13T01:35:15;94573.47;;;4.67;70.44
7335;BME280;3708;42.632;23.378;2023-01-13T01:37:43;94569.41;;;4.27;71.42
7335;BME280;3708;42.632;23.378;2023-01-13T01:40:10;94567.00;;;4.93;69.64
7335;BME280;3708;42.632;23.378;2023-01-13T01:42:37;94565.03;;;4.85;68.57
7335;BME280;3708;42.632;23.378;2023-01-13T01:45:30;94558.47;;;4.35;70.96
7335;BME280;3708;42.632;23.378;2023-01-13T01:48:00;94558.06;;;4.80;69.69
7335;BME280;3708;42.632;23.378;2023-01-13T01:50:29;94559.69;;;4.71;69.24
7335;BME280;3708;42.632;23.378;2023-01-13T01:53:00;94568.97;;;4.77;69.56
7335;BME280;3708;42.632;23.378;2023-01-13T01:55:30;94561.28;;;4.38;71.14
7335;BME280;3708;42.632;23.378;2023-01-13T01:58:03;94552.72;;;4.95;69.73
7335;BME280;3708;42.632;23.378;2023-01-13T02:00:33;94571.31;;;4.50;69.82
7335;BME280;3708;42.632;23.378;2023-01-13T02:03:00;94557.72;;;4.29;71.75
7335;BME280;3708;42.632;23.378;2023-01-13T02:05:29;94561.88;;;4.59;69.81
7335;BME280;3708;42.632;23.378;2023-01-13T02:07:57;94554.13;;;4.25;71.29
7335;BME280;3708;42.632;23.378;2023-01-13T02:10:27;94554.41;;;4.24;71.18
7335;BME280;3708;42.632;23.378;2023-01-13T02:12:56;94551.00;;;4.28;71.23
7335;BME280;3708;42.632;23.378;2023-01-13T02:15:31;94550.00;;;4.24;71.95
7335;BME280;3708;42.632;23.378;2023-01-13T02:18:32;94548.44;;;4.23;71.00
7335;BME280;3708;42.632;23.378;2023-01-13T02:24:21;94550.97;;;4.33;72.15
7335;BME280;3708;42.632;23.378;2023-01-13T02:27:31;94547.19;;;5.02;69.88
7335;BME280;3708;42.632;23.378;2023-01-13T02:30:15;94542.59;;;4.70;70.15
7335;BME280;3708;42.632;23.378;2023-01-13T02:33:16;94551.72;;;4.34;70.74
7335;BME280;3708;42.632;23.378;2023-01-13T02:35:49;94551.31;;;4.79;70.42
7335;BME280;3708;42.632;23.378;2023-01-13T02:38:19;94555.09;;;4.34;71.01
7335;BME280;3708;42.632;23.378;2023-01-13T02:40:53;94552.16;;;4.46;70.52
7335;BME280;3708;42.632;23.378;2023-01-13T02:43:27;94550.59;;;4.45;70.44
7335;BME280;3708;42.632;23.378;2023-01-13T02:46:22;94563.09;;;4.38;70.75
7335;BME280;3708;42.632;23.378;2023-01-13T02:48:56;94557.25;;;4.22;72.17
7335;BME280;3708;42.632;23.378;2023-01-13T02:51:30;94557.44;;;3.97;72.60
7335;BME280;3708;42.632;23.378;2023-01-13T02:54:01;94561.53;;;4.42;71.34
7335;BME280;3708;42.632;23.378;2023-01-13T02:56:32;94570.72;;;4.58;70.99
7335;BME280;3708;42.632;23.378;2023-01-13T02:59:01;94547.91;;;5.07;69.08
7335;BME280;3708;42.632;23.378;2023-01-13T03:01:31;94555.19;;;4.82;68.83
7335;BME280;3708;42.632;23.378;2023-01-13T03:03:58;94550.13;;;4.95;68.90
7335;BME280;3708;42.632;23.378;2023-01-13T03:06:38;94543.03;;;4.77;69.41
7335;BME280;3708;42.632;23.378;2023-01-13T03:09:14;94557.19;;;5.13;68.02
7335;BME280;3708;42.632;23.378;2023-01-13T03:11:51;94560.41;;;4.77;69.27
7335;BME280;3708;42.632;23.378;2023-01-13T03:14:32;94550.78;;;5.29;68.11
7335;BME280;3708;42.632;23.378;2023-01-13T03:17:15;94557.69;;;5.15;68.50
7335;BME280;3708;42.632;23.378;2023-01-13T03:19:51;94552.81;;;5.32;68.29
7335;BME280;3708;42.632;23.378;2023-01-13T03:22:27;94558.31;;;4.55;69.60
7335;BME280;3708;42.632;23.378;2023-01-13T03:25:03;94548.53;;;4.71;70.50
7335;BME280;3708;42.632;23.378;2023-01-13T03:27:39;94557.41;;;5.40;67.89
7335;BME280;3708;42.632;23.378;2023-01-13T03:30:15;94557.75;;;5.53;66.98
7335;BME280;3708;42.632;23.378;2023-01-13T03:32:48;94554.03;;;5.16;68.32
7335;BME280;3708;42.632;23.378;2023-01-13T03:35:19;94556.75;;;5.06;68.11
7335;BME280;3708;42.632;23.378;2023-01-13T03:37:52;94565.56;;;5.05;68.94
7335;BME280;3708;42.632;23.378;2023-01-13T03:40:26;94559.22;;;5.59;66.87
7335;BME280;3708;42.632;23.378;2023-01-13T03:42:56;94562.16;;;5.10;68.09
7335;BME280;3708;42.632;23.378;2023-01-13T03:45:44;94562.16;;;4.86;69.33
7335;BME280;3708;42.632;23.378;2023-01-13T03:48:18;94567.09;;;4.59;69.76
7335;BME280;3708;42.632;23.378;2023-01-13T03:50:49;94576.47;;;5.31;67.79
7335;BME280;3708;42.632;23.378;2023-01-13T03:53:19;94566.16;;;4.74;69.28
7335;BME280;3708;42.632;23.378;2023-01-13T03:55:51;94563.38;;;4.94;69.11
7335;BME280;3708;42.632;23.378;2023-01-13T03:58:22;94573.06;;;4.83;68.28
7335;BME280;3708;42.632;23.378;2023-01-13T04:00:54;94563.13;;;4.90;68.62
7335;BME280;3708;42.632;23.378;2023-01-13T04:03:30;94566.91;;;5.03;68.93
7335;BME280;3708;42.632;23.378;2023-01-13T04:06:05;94566.34;;;5.06;68.65
7335;BME280;3708;42.632;23.378;2023-01-13T04:08:40;94565.38;;;4.44;69.90
7335;BME280;3708;42.632;23.378;2023-01-13T04:11:13;94573.06;;;4.83;68.88
7335;BME280;3708;42.632;23.378;2023-01-13T04:13:45;94569.81;;;4.44;69.93
7335;BME280;3708;42.632;23.378;2023-01-13T04:16:14;94569.03;;;4.43;71.11
7335;BME280;3708;42.632;23.378;2023-01-13T04:18:43;94570.25;;;4.51;70.28
7335;BME280;3708;42.632;23.378;2023-01-13T04:21:10;94568.63;;;4.60;70.21
7335;BME280;3708;42.632;23.378;2023-01-13T04:23:37;94572.94;;;4.70;69.78
7335;BME280;3708;42.632;23.378;2023-01-13T04:26:04;94574.19;;;5.01;68.97
7335;BME280;3708;42.632;23.378;2023-01-13T04:28:31;94583.50;;;4.78;68.49
7335;BME280;3708;42.632;23.378;2023-01-13T04:30:59;94580.59;;;4.85;69.24
7335;BME280;3708;42.632;23.378;2023-01-13T04:33:26;94587.47;;;5.47;67.85
7335;BME280;3708;42.632;23.378;2023-01-13T04:35:54;94585.34;;;5.49;67.13
7335;BME280;3708;42.632;23.378;2023-01-13T04:38:40;94580.31;;;5.57;66.30
7335;BME280;3708;42.632;23.378;2023-01-13T04:41:06;94575.84;;;5.81;66.23
7335;BME280;3708;42.632;23.378;2023-01-13T04:43:33;94577.31;;;5.69;65.93
7335;BME280;3708;42.632;23.378;2023-01-13T04:46:00;94585.81;;;5.32;66.73
7335;BME280;3708;42.632;23.378;2023-01-13T04:48:27;94581.41;;;5.09;68.48
7335;BME280;3708;42.632;23.378;2023-01-13T04:50:55;94584.69;;;4.91;68.29
7335;BME280;3708;42.632;23.378;2023-01-13T04:53:22;94591.50;;;4.82;69.19
7335;BME280;3708;42.632;23.378;2023-01-13T04:55:49;94581.59;;;5.12;68.60
7335;BME280;3708;42.632;23.378;2023-01-13T04:58:16;94587.75;;;4.69;69.19
7335;BME280;3708;42.632;23.378;2023-01-13T05:00:43;94590.63;;;4.68;70.08
7335;BME280;3708;42.632;23.378;2023-01-13T05:03:10;94586.63;;;5.27;67.80
7335;BME280;3708;42.632;23.378;2023-01-13T05:05:37;94585.75;;;4.61;69.69
7335;BME280;3708;42.632;23.378;2023-01-13T05:08:06;94580.63;;;5.32;68.33
7335;BME280;3708;42.632;23.378;2023-01-13T05:10:33;94590.63;;;4.68;69.84
7335;BME280;3708;42.632;23.378;2023-01-13T05:13:00;94597.59;;;4.72;69.46
7335;BME280;3708;42.632;23.378;2023-01-13T05:15:44;94594.50;;;4.70;69.85
7335;BME280;3708;42.632;23.378;2023-01-13T05:18:43;94598.69;;;4.90;68.59
7335;BME280;3708;42.632;23.378;2023-01-13T05:21:10;94594.59;;;4.84;68.24
7335;BME280;3708;42.632;23.378;2023-01-13T05:23:59;94590.09;;;5.41;68.17
7335;BME280;3708;42.632;23.378;2023-01-13T05:26:43;94596.41;;;5.12;68.20
7335;BME280;3708;42.632;23.378;2023-01-13T05:29:10;94595.28;;;5.41;67.29
7335;BME280;3708;42.632;23.378;2023-01-13T05:31:37;94592.84;;;5.03;67.47
7335;BME280;3708;42.632;23.378;2023-01-13T05:34:04;94593.75;;;5.40;67.01
7335;BME280;3708;42.632;23.378;2023-01-13T05:36:31;94596.69;;;5.34;67.40
7335;BME280;3708;42.632;23.378;2023-01-13T05:38:59;94590.03;;;4.99;69.19
7335;BME280;3708;42.632;23.378;2023-01-13T05:41:26;94593.44;;;5.23;67.81
7335;BME280;3708;42.632;23.378;2023-01-13T05:44:11;94595.19;;;5.04;67.95
7335;BME280;3708;42.632;23.378;2023-01-13T05:46:37;94599.84;;;5.31;67.92
7335;BME280;3708;42.632;23.378;2023-01-13T05:49:06;94598.28;;;5.06;67.67
7335;BME280;3708;42.632;23.378;2023-01-13T05:51:33;94603.16;;;5.13;68.64
7335;BME280;3708;42.632;23.378;2023-01-13T05:54:01;94611.41;;;4.91;68.96
7335;BME280;3708;42.632;23.378;2023-01-13T05:56:28;94606.47;;;5.18;67.76
7335;BME280;3708;42.632;23.378;2023-01-13T05:58:54;94612.81;;;5.55;67.48
7335;BME280;3708;42.632;23.378;2023-01-13T06:01:21;94607.78;;;5.63;66.74
7335;BME280;3708;42.632;23.378;2023-01-13T06:03:48;94608.84;;;5.81;66.40
7335;BME280;3708;42.632;23.378;2023-01-13T06:06:15;94612.56;;;6.17;64.94
7335;BME280;3708;42.632;23.378;2023-01-13T06:08:42;94616.50;;;5.96;65.36
7335;BME280;3708;42.632;23.378;2023-01-13T06:11:10;94614.69;;;5.96;66.52
7335;BME280;3708;42.632;23.378;2023-01-13T06:13:37;94615.16;;;6.36;64.45
7335;BME280;3708;42.632;23.378;2023-01-13T06:16:04;94623.13;;;5.65;67.17
7335;BME280;3708;42.632;23.378;2023-01-13T06:18:31;94624.78;;;5.74;65.97
7335;BME280;3708;42.632;23.378;2023-01-13T06:20:58;94628.91;;;5.33;67.58
7335;BME280;3708;42.632;23.378;2023-01-13T06:23:25;94632.44;;;5.66;67.05
7335;BME280;3708;42.632;23.378;2023-01-13T06:25:59;94631.91;;;5.45;67.19
7335;BME280;3708;42.632;23.378;2023-01-13T06:28:29;94638.38;;;4.95;68.92
7335;BME280;3708;42.632;23.378;2023-01-13T06:30:59;94632.25;;;4.81;69.53
7335;BME280;3708;42.632;23.378;2023-01-13T06:33:29;94629.97;;;4.46;70.86
7335;BME280;3708;42.632;23.378;2023-01-13T06:36:01;94617.19;;;4.54;71.67
7335;BME280;3708;42.632;23.378;2023-01-13T06:38:32;94620.97;;;4.67;70.90
7335;BME280;3708;42.632;23.378;2023-01-13T06:41:01;94625.88;;;4.35;72.28
7335;BME280;3708;42.632;23.378;2023-01-13T06:43:29;94624.53;;;4.42;72.46
7335;BME280;3708;42.632;23.378;2023-01-13T06:45:55;94628.66;;;4.48;72.17
7335;BME280;3708;42.632;23.378;2023-01-13T06:48:24;94625.69;;;4.94;70.67
7335;BME280;3708;42.632;23.378;2023-01-13T06:50:51;94631.00;;;4.79;70.43
7335;BME280;3708;42.632;23.378;2023-01-13T06:53:19;94635.94;;;4.75;69.83
7335;BME280;3708;42.632;23.378;2023-01-13T06:55:45;94634.53;;;4.88;69.88
7335;BME280;3708;42.632;23.378;2023-01-13T06:58:12;94634.91;;;4.76;70.86
7335;BME280;3708;42.632;23.378;2023-01-13T07:00:41;94629.44;;;5.06;69.99
7335;BME280;3708;42.632;23.378;2023-01-13T07:03:10;94634.03;;;4.86;70.49
7335;BME280;3708;42.632;23.378;2023-01-13T07:05:37;94634.66;;;5.06;69.19
7335;BME280;3708;42.632;23.378;2023-01-13T07:08:05;94636.50;;;5.01;70.43
7335;BME280;3708;42.632;23.378;2023-01-13T07:10:32;94634.28;;;4.89;70.70
7335;BME280;3708;42.632;23.378;2023-01-13T07:13:01;94638.41;;;5.66;68.41
7335;BME280;3708;42.632;23.378;2023-01-13T07:16:00;94629.16;;;5.36;69.17
7335;BME280;3708;42.632;23.378;2023-01-13T07:18:34;94625.22;;;5.63;67.65
7335;BME280;3708;42.632;23.378;2023-01-13T07:21:04;94628.34;;;5.60;67.92
7335;BME280;3708;42.632;23.378;2023-01-13T07:23:36;94630.41;;;5.63;68.30
7335;BME280;3708;42.632;23.378;2023-01-13T07:26:05;94640.97;;;5.71;66.42
7335;BME280;3708;42.632;23.378;2023-01-13T07:28:33;94630.69;;;5.37;68.48
7335;BME280;3708;42.632;23.378;2023-01-13T07:31:01;94627.53;;;5.40;69.81
7335;BME280;3708;42.632;23.378;2023-01-13T07:33:28;94628.00;;;5.48;67.98
7335;BME280;3708;42.632;23.378;2023-01-13T07:35:58;94630.13;;;6.06;66.50
7335;BME280;3708;42.632;23.378;2023-01-13T07:38:25;94631.41;;;5.67;66.79
7335;BME280;3708;42.632;23.378;2023-01-13T07:40:53;94627.47;;;6.30;65.76
7335;BME280;3708;42.632;23.378;2023-01-13T07:43:20;94641.22;;;6.49;65.64
7335;BME280;3708;42.632;23.378;2023-01-13T07:45:59;94622.91;;;6.22;65.24
7335;BME280;3708;42.632;23.378;2023-01-13T07:48:29;94623.94;;;5.84;65.76
7335;BME280;3708;42.632;23.378;2023-01-13T07:51:00;94633.50;;;6.07;65.16
7335;BME280;3708;42.632;23.378;2023-01-13T07:53:27;94632.88;;;6.84;63.96
7335;BME280;3708;42.632;23.378;2023-01-13T07:55:54;94631.91;;;6.48;63.59
7335;BME280;3708;42.632;23.378;2023-01-13T07:58:22;94633.31;;;6.03;65.16
7335;BME280;3708;42.632;23.378;2023-01-13T08:00:49;94634.13;;;6.36;64.39
7335;BME280;3708;42.632;23.378;2023-01-13T08:03:16;94638.75;;;6.76;63.63
7335;BME280;3708;42.632;23.378;2023-01-13T08:05:44;94644.38;;;6.65;62.70
7335;BME280;3708;42.632;23.378;2023-01-13T08:08:11;94651.78;;;6.39;63.92
7335;BME280;3708;42.632;23.378;2023-01-13T08:10:38;94643.09;;;7.13;61.99
7335;BME280;3708;42.632;23.378;2023-01-13T08:13:08;94645.47;;;6.96;62.34
7335;BME280;3708;42.632;23.378;2023-01-13T08:15:47;94642.38;;;6.94;62.30
7335;BME280;3708;42.632;23.378;2023-01-13T08:18:20;94648.00;;;7.15;61.39
7335;BME280;3708;42.632;23.378;2023-01-13T08:20:49;94649.66;;;7.38;60.72
7335;BME280;3708;42.632;23.378;2023-01-13T08:23:17;94648.41;;;7.22;61.30
7335;BME280;3708;42.632;23.378;2023-01-13T08:25:44;94650.38;;;7.43;60.65
7335;BME280;3708;42.632;23.378;2023-01-13T08:28:12;94644.75;;;7.77;59.81
7335;BME280;3708;42.632;23.378;2023-01-13T08:30:41;94639.41;;;8.09;59.04
7335;BME280;3708;42.632;23.378;2023-01-13T08:33:09;94654.31;;;7.41;59.50
7335;BME280;3708;42.632;23.378;2023-01-13T08:35:36;94644.19;;;7.53;59.91
7335;BME280;3708;42.632;23.378;2023-01-13T08:38:05;94635.28;;;7.13;60.94
7335;BME280;3708;42.632;23.378;2023-01-13T08:40:32;94652.13;;;7.48;59.16
7335;BME280;3708;42.632;23.378;2023-01-13T08:42:59;94636.66;;;7.24;60.50
7335;BME280;3708;42.632;23.378;2023-01-13T08:45:26;94641.66;;;7.61;60.19
7335;BME280;3708;42.632;23.378;2023-01-13T08:47:53;94638.47;;;7.92;59.03
7335;BME280;3708;42.632;23.378;2023-01-13T08:50:20;94631.25;;;7.48;59.80
7335;BME280;3708;42.632;23.378;2023-01-13T08:52:47;94632.75;;;8.03;58.99
7335;BME280;3708;42.632;23.378;2023-01-13T08:55:15;94631.34;;;8.69;57.23
7335;BME280;3708;42.632;23.378;2023-01-13T08:57:42;94627.94;;;8.46;56.91
7335;BME280;3708;42.632;23.378;2023-01-13T09:00:10;94624.22;;;8.38;57.18
7335;BME280;3708;42.632;23.378;2023-01-13T09:02:37;94633.28;;;9.07;56.04
7335;BME280;3708;42.632;23.378;2023-01-13T09:05:04;94632.56;;;8.71;56.54
7335;BME280;3708;42.632;23.378;2023-01-13T09:07:32;94641.19;;;8.94;54.80
7335;BME280;3708;42.632;23.378;2023-01-13T09:09:59;94628.50;;;8.79;55.60
7335;BME280;3708;42.632;23.378;2023-01-13T09:12:27;94636.38;;;9.40;54.32
7335;BME280;3708;42.632;23.378;2023-01-13T09:15:12;94634.50;;;9.71;53.24
7335;BME280;3708;42.632;23.378;2023-01-13T09:17:38;94632.97;;;9.31;53.17
7335;BME280;3708;42.632;23.378;2023-01-13T09:20:06;94632.09;;;9.44;52.58
7335;BME280;3708;42.632;23.378;2023-01-13T09:22:35;94637.38;;;9.22;53.35
7335;BME280;3708;42.632;23.378;2023-01-13T09:25:04;94629.81;;;8.90;53.91
7335;BME280;3708;42.632;23.378;2023-01-13T09:27:32;94626.19;;;8.55;53.98
7335;BME280;3708;42.632;23.378;2023-01-13T09:29:59;94626.59;;;7.72;56.58
7335;BME280;3708;42.632;23.378;2023-01-13T09:32:26;94626.69;;;7.94;56.27
7335;BME280;3708;42.632;23.378;2023-01-13T09:34:52;94624.91;;;8.17;55.76
7335;BME280;3708;42.632;23.378;2023-01-13T09:37:25;94626.19;;;7.92;57.48
7335;BME280;3708;42.632;23.378;2023-01-13T09:39:52;94617.66;;;8.14;57.00
7335;BME280;3708;42.632;23.378;2023-01-13T09:42:25;94623.50;;;7.97;57.63
7335;BME280;3708;42.632;23.378;2023-01-13T09:45:18;94617.34;;;7.93;57.26
7335;BME280;3708;42.632;23.378;2023-01-13T09:47:50;94621.00;;;7.38;58.04
7335;BME280;3708;42.632;23.378;2023-01-13T09:50:30;94622.28;;;7.54;59.36
7335;BME280;3708;42.632;23.378;2023-01-13T09:52:59;94616.38;;;7.89;58.24
7335;BME280;3708;42.632;23.378;2023-01-13T09:55:31;94630.88;;;7.41;59.17
7335;BME280;3708;42.632;23.378;2023-01-13T09:58:00;94626.63;;;6.85;61.45
7335;BME280;3708;42.632;23.378;2023-01-13T10:00:34;94621.44;;;6.99;60.61
7335;BME280;3708;42.632;23.378;2023-01-13T10:06:12;94610.59;;;7.65;59.26
7335;BME280;3708;42.632;23.378;2023-01-13T10:08:51;94609.44;;;8.78;56.36
7335;BME280;3708;42.632;23.378;2023-01-13T10:11:35;94613.38;;;9.20;54.49
7335;BME280;3708;42.632;23.378;2023-01-13T10:14:29;94615.94;;;9.11;53.52
7335;BME280;3708;42.632;23.378;2023-01-13T10:17:09;94610.50;;;9.30;53.02
7335;BME280;3708;42.632;23.378;2023-01-13T10:19:40;94604.09;;;9.45;52.52
7335;BME280;3708;42.632;23.378;2023-01-13T10:22:22;94603.31;;;8.61;54.80
7335;BME280;3708;42.632;23.378;2023-01-13T10:25:12;94602.06;;;9.02;54.17
7335;BME280;3708;42.632;23.378;2023-01-13T10:27:46;94601.97;;;9.16;53.57
7335;BME280;3708;42.632;23.378;2023-01-13T10:30:23;94604.94;;;9.32;53.12
7335;BME280;3708;42.632;23.378;2023-01-13T10:32:58;94600.19;;;9.25;52.89
7335;BME280;3708;42.632;23.378;2023-01-13T10:35:48;94593.44;;;8.49;54.96
7335;BME280;3708;42.632;23.378;2023-01-13T10:38:23;94595.00;;;8.81;53.91
7335;BME280;3708;42.632;23.378;2023-01-13T10:40:52;94597.94;;;8.79;54.06
7335;BME280;3708;42.632;23.378;2023-01-13T10:43:19;94598.47;;;9.20;53.48
7335;BME280;3708;42.632;23.378;2023-01-13T10:45:59;94592.97;;;9.00;53.86
7335;BME280;3708;42.632;23.378;2023-01-13T10:48:39;94592.28;;;9.16;52.86
7335;BME280;3708;42.632;23.378;2023-01-13T10:54:01;94591.66;;;8.58;54.96
7335;BME280;3708;42.632;23.378;2023-01-13T10:56:31;94595.97;;;9.15;53.58
7335;BME280;3708;42.632;23.378;2023-01-13T10:59:12;94589.72;;;9.25;53.68
7335;BME280;3708;42.632;23.378;2023-01-13T11:01:51;94586.59;;;9.62;52.18
7335;BME280;3708;42.632;23.378;2023-01-13T11:04:28;94590.84;;;9.97;51.30
7335;BME280;3708;42.632;23.378;2023-01-13T11:06:56;94583.16;;;10.10;51.21
7335;BME280;3708;42.632;23.378;2023-01-13T11:09:25;94584.75;;;10.28;50.78
7335;BME280;3708;42.632;23.378;2023-01-13T11:11:52;94579.84;;;10.35;50.25
7335;BME280;3708;42.632;23.378;2023-01-13T11:14:24;94580.28;;;10.37;50.30
7335;BME280;3708;42.632;23.378;2023-01-13T11:17:36;94574.88;;;10.16;50.50
7335;BME280;3708;42.632;23.378;2023-01-13T11:20:19;94579.16;;;10.04;50.64
7335;BME280;3708;42.632;23.378;2023-01-13T11:22:48;94569.25;;;9.83;50.95
7335;BME280;3708;42.632;23.378;2023-01-13T11:25:19;94562.59;;;9.60;51.94
7335;BME280;3708;42.632;23.378;2023-01-13T11:27:51;94569.91;;;9.02;53.14
7335;BME280;3708;42.632;23.378;2023-01-13T11:30:27;94568.22;;;8.97;53.54
7335;BME280;3708;42.632;23.378;2023-01-13T11:33:04;94565.78;;;9.01;53.36
7335;BME280;3708;42.632;23.378;2023-01-13T11:35:41;94568.16;;;8.89;53.50
7335;BME280;3708;42.632;23.378;2023-01-13T11:38:12;94564.72;;;9.10;53.02
7335;BME280;3708;42.632;23.378;2023-01-13T11:40:42;94565.91;;;9.35;52.34
7335;BME280;3708;42.632;23.378;2023-01-13T11:43:18;94570.88;;;9.45;52.14
7335;BME280;3708;42.632;23.378;2023-01-13T11:45:50;94554.94;;;9.16;52.53
7335;BME280;3708;42.632;23.378;2023-01-13T11:48:20;94557.69;;;9.11;52.82
7335;BME280;3708;42.632;23.378;2023-01-13T11:50:56;94561.47;;;9.36;52.34
7335;BME280;3708;42.632;23.378;2023-01-13T11:53:42;94557.84;;;8.84;53.45
7335;BME280;3708;42.632;23.378;2023-01-13T11:56:22;94561.44;;;8.66;53.95
7335;BME280;3708;42.632;23.378;2023-01-13T11:59:11;94552.28;;;8.77;54.18
7335;BME280;3708;42.632;23.378;2023-01-13T12:01:51;94560.22;;;8.72;53.64
7335;BME280;3708;42.632;23.378;2023-01-13T12:04:30;94553.47;;;9.01;53.17
7335;BME280;3708;42.632;23.378;2023-01-13T12:07:09;94543.81;;;9.10;53.02
7335;BME280;3708;42.632;23.378;2023-01-13T12:09:52;94552.91;;;9.52;52.18
7335;BME280;3708;42.632;23.378;2023-01-13T12:12:33;94543.88;;;9.92;51.53
7335;BME280;3708;42.632;23.378;2023-01-13T12:15:30;94542.19;;;9.96;51.17
7335;BME280;3708;42.632;23.378;2023-01-13T12:18:16;94547.28;;;9.28;51.99
7335;BME280;3708;42.632;23.378;2023-01-13T12:20:51;94548.22;;;9.32;52.27
7335;BME280;3708;42.632;23.378;2023-01-13T12:23:31;94547.00;;;9.38;52.17
7335;BME280;3708;42.632;23.378;2023-01-13T12:26:04;94541.19;;;9.41;52.76
7335;BME280;3708;42.632;23.378;2023-01-13T12:28:40;94547.06;;;9.07;53.46
7335;BME280;3708;42.632;23.378;2023-01-13T12:31:09;94545.75;;;8.66;54.23
7335;BME280;3708;42.632;23.378;2023-01-13T12:33:47;94547.00;;;8.90;53.99
7335;BME280;3708;42.632;23.378;2023-01-13T12:36:21;94541.28;;;8.58;54.38
7335;BME280;3708;42.632;23.378;2023-01-13T12:39:02;94540.91;;;9.03;53.59
7335;BME280;3708;42.632;23.378;2023-01-13T12:41:43;94545.56;;;9.23;52.61
7335;BME280;3708;42.632;23.378;2023-01-13T12:44:25;94541.19;;;9.41;52.48
7335;BME280;3708;42.632;23.378;2023-01-13T12:46:53;94538.03;;;9.22;53.13
7335;BME280;3708;42.632;23.378;2023-01-13T12:49:27;94549.00;;;8.71;54.69
7335;BME280;3708;42.632;23.378;2023-01-13T12:52:20;94548.44;;;9.05;53.63
7335;BME280;3708;42.632;23.378;2023-01-13T12:55:15;94547.94;;;8.94;53.60
7335;BME280;3708;42.632;23.378;2023-01-13T13:01:04;94547.34;;;9.06;53.58
7335;BME280;3708;42.632;23.378;2023-01-13T13:03:36;94542.72;;;9.42;52.54
7335;BME280;3708;42.632;23.378;2023-01-13T13:06:13;94555.88;;;9.20;53.11
7335;BME280;3708;42.632;23.378;2023-01-13T13:08:49;94556.25;;;9.36;52.94
7335;BME280;3708;42.632;23.378;2023-01-13T13:11:42;94557.16;;;8.70;54.18
7335;BME280;3708;42.632;23.378;2023-01-13T13:14:58;94565.34;;;8.55;55.26
7335;BME280;3708;42.632;23.378;2023-01-13T13:18:01;94562.72;;;8.77;54.94
7335;BME280;3708;42.632;23.378;2023-01-13T13:20:52;94561.91;;;8.45;55.51
7335;BME280;3708;42.632;23.378;2023-01-13T13:23:39;94568.44;;;8.57;55.59
7335;BME280;3708;42.632;23.378;2023-01-13T13:26:27;94573.53;;;8.84;54.19
7335;BME280;3708;42.632;23.378;2023-01-13T13:32:03;94565.41;;;8.41;55.41
7335;BME280;3708;42.632;23.378;2023-01-13T13:34:34;94567.84;;;8.02;56.56
7335;BME280;3708;42.632;23.378;2023-01-13T13:37:15;94564.03;;;8.88;54.60
7335;BME280;3708;42.632;23.378;2023-01-13T13:39:50;94564.53;;;8.98;53.84
7335;BME280;3708;42.632;23.378;2023-01-13T13:42:36;94572.06;;;9.00;53.61
7335;BME280;3708;42.632;23.378;2023-01-13T13:45:26;94571.16;;;9.35;52.96
7335;BME280;3708;42.632;23.378;2023-01-13T13:48:22;94579.59;;;9.01;53.48
7335;BME280;3708;42.632;23.378;2023-01-13T13:50:51;94575.84;;;8.85;54.07
7335;BME280;3708;42.632;23.378;2023-01-13T13:53:23;94572.75;;;8.83;54.12
7335;BME280;3708;42.632;23.378;2023-01-13T13:55:53;94577.22;;;9.13;53.04
7335;BME280;3708;42.632;23.378;2023-01-13T13:58:22;94573.91;;;8.99;53.00
7335;BME280;3708;42.632;23.378;2023-01-13T14:00:52;94574.22;;;8.76;54.04
7335;BME280;3708;42.632;23.378;2023-01-13T14:03:22;94577.91;;;8.97;53.37
7335;BME280;3708;42.632;23.378;2023-01-13T14:05:56;94573.88;;;9.30;52.69
7335;BME280;3708;42.632;23.378;2023-01-13T14:08:24;94572.66;;;9.75;51.88